Relevés horaires Schaffen (Belgique)


Relevés horaires à Schaffen - Samedi 17 Nov. 2018
Heure UTC1 Température [°C] Vent [km/h] Hum. [%] Pres.4 [hPa] Visi. [Km] Nébu. [octa] Préc.5 [mm] Cond.
2m. Res. Ros. Dir.2 Vit. Moy. Raf.3
23:00 3.5 2.1 -1.6 NE 5.6 -- 11.1 69 1029.5(0.4/3h) 20 -- -- --
22:00 4.1 2.8 -1.3 ENE 5.6 -- 11.1 68 1029.4(0.0/3h) 20 -- -- --
21:00 4.2 2.9 -0.9 NE 5.6 -- 11.1 69 1029.4(0.4/3h) 17 -- -- --
20:00 5.0 3.9 -0.3 NE 5.6 -- 11.1 69 1029(0.0/3h) 17 -- -- --
19:00 5.5 4.4 0.3 ENE 5.6 -- 9.3 69 1029.2(0.2/3h) 16 -- -- --
18:00 6.1 5.1 1.0 ENE 5.6 -- 16.7 70 1029(0.2/3h) 14 -- -- --
17:00 6.8 5.9 1.1 ENE 5.6 -- 11.1 67 1029(0.1/3h) 16 -- -- --
16:00 8.0 6.8 1.2 NE 7.4 -- 11.1 62 1028.9(-0.2/3h) 17 -- -- --
15:00 9.2 8.7 0.5 ENE 5.6 11.1 16.7 54 1028.7(-0.5/3h) 20 -- -- --
14:00 9.3 8.3 0.1 E 7.4 -- 16.7 53 1028.7(-0.6/3h) 20 -- -- --
13:00 9.0 8 0.7 E 7.4 -- 14.8 56 1029.2(-0.5/3h) 20 -- -- --
12:00 8.5 7.4 1.5 E 7.4 -- 14.8 61 1029.2(-0.1/3h) 20 -- -- --
11:00 6.9 5.1 1.2 E 9.3 -- 14.8 67 1029.4(0.0/3h) 16 -- -- --
10:00 5.5 3.9 1.3 ENE 7.4 -- 13.0 74 1029.7(0.4/3h) 14 -- -- --
09:00 3.9 2.6 1.1 E 5.6 -- 9.3 82 1029.5(0.7/3h) 10 -- -- --
08:00 2.5 2.5 0.7 E 3.7 -- 7.4 88 1029.5(0.6/3h) 10 -- -- --
07:00 1.7 1.7 0.3 E 3.7 -- 7.4 90 1029.4(0.5/3h) 8 -- -- --
06:00 1.7 1.7 0.3 E 3.7 -- 7.4 90 1028.9(-0.2/3h) 8 -- -- --
05:00 1.6 1.6 0.4 NNO 1.9 -- 5.6 92 1028.7(-0.2/3h) 7 -- -- --
04:00 1.9 1.9 0.7 NNO 1.9 -- 5.6 92 1028.7(-0.1/3h) 7 -- -- --
03:00 1.7 1.7 0.7 NNO 1.9 3.7 5.6 93 1029(0.5/3h) 6 -- -- --
02:00 1.0 1.0 0.5 N 3.7 -- 5.6 96 1029(0.4/3h) 3.1 -- -- Du brouillard ou du brouillard glacé (plus correctement designé sous le nom de brume) est observé et la visibilité n'est ni inférieure à 5/8 de mille ni supérieure à 6 milles
01:00 2.3 2.3 1.0 E 3.7 -- 5.6 91 1028.9(0.4/3h) 7 -- -- --
00:00 3.0 3.0 1.5 E 3.7 -- 5.6 90 1028.5(0.2/3h) 9 -- -- --

1 Coordinated Universal Time. Actuellement il est 03:00 locale et 02:00 UTC.

2 Le vent souffle depuis la direction indiquée vers la direction oposée.

3 Les rafales max. sont disponible 40 min après l'heure du relevé.

4 Pour les stations d'altitude (plus de 600m) le géopotentiel du niveau le plus proche de la pression obligatoire est indiqué.

5 Les stations disposant d'un diffuseur peuvent indiquer "trace". Cela signifie que des précipitations ont touchés le sol mais que la quantité est inférieure à 0.1 mm.

Récapitulatif de la journée
Température [°C] Vent [km/h] Ensoleillement4 [h] Precipitations totale5 [mm] Pression [Hpa]
Min1 Max.2 Moy.3 Max. Min Max.
1.0 9.4 7.4 16.7 0 h 0 min 0 1028.5 1029.7

1 Température minimale relevée entre 18:00 UTC la veille et 18:00 UTC le jour donné.

2 Température maximale relevée entre 06:00 UTC le jour donné et 06:00 UTC le lendemain.

3 Vent moyen de la journée basé sur les relevés horaires.

4 Ensoleillement en heures relevé entre 06:00 UTC la veille et 06:00 UTC le jour donné.

5 Précipitations totales tombées entre 06:00 UTC la jour donné et 06:00 UTC le lendemain.

Graphiques horaires